sensor_id;sensor_type;location;lat;lon;timestamp;pressure;altitude;pressure_sealevel;temperature
21336;BMP180;69435;52.670;13.544;2023-08-08T00:02:32;100213.00;;;18.90
21336;BMP180;69435;52.670;13.544;2023-08-08T00:05:18;100184.00;;;18.80
21336;BMP180;69435;52.670;13.544;2023-08-08T00:08:06;100203.00;;;18.80
21336;BMP180;69435;52.670;13.544;2023-08-08T00:10:53;100219.00;;;18.80
21336;BMP180;69435;52.670;13.544;2023-08-08T00:13:40;100218.00;;;18.70
21336;BMP180;69435;52.670;13.544;2023-08-08T00:16:26;100222.00;;;18.70
21336;BMP180;69435;52.670;13.544;2023-08-08T00:19:12;100208.00;;;18.60
21336;BMP180;69435;52.670;13.544;2023-08-08T00:21:58;100225.00;;;18.60
21336;BMP180;69435;52.670;13.544;2023-08-08T00:24:44;100205.00;;;18.60
21336;BMP180;69435;52.670;13.544;2023-08-08T00:27:30;100216.00;;;18.60
21336;BMP180;69435;52.670;13.544;2023-08-08T00:30:16;100228.00;;;18.50
21336;BMP180;69435;52.670;13.544;2023-08-08T00:33:02;100225.00;;;18.50
21336;BMP180;69435;52.670;13.544;2023-08-08T00:35:49;100214.00;;;18.50
21336;BMP180;69435;52.670;13.544;2023-08-08T00:38:35;100211.00;;;18.40
21336;BMP180;69435;52.670;13.544;2023-08-08T00:41:22;100204.00;;;18.40
21336;BMP180;69435;52.670;13.544;2023-08-08T00:44:08;100210.00;;;18.40
21336;BMP180;69435;52.670;13.544;2023-08-08T00:46:54;100217.00;;;18.40
21336;BMP180;69435;52.670;13.544;2023-08-08T00:49:41;100213.00;;;18.20
21336;BMP180;69435;52.670;13.544;2023-08-08T00:52:29;100216.00;;;18.20
21336;BMP180;69435;52.670;13.544;2023-08-08T00:55:16;100220.00;;;18.30
21336;BMP180;69435;52.670;13.544;2023-08-08T00:58:02;100215.00;;;18.20
21336;BMP180;69435;52.670;13.544;2023-08-08T01:00:49;100206.00;;;18.20
21336;BMP180;69435;52.670;13.544;2023-08-08T01:03:35;100221.00;;;18.30
21336;BMP180;69435;52.670;13.544;2023-08-08T01:07:16;100231.00;;;18.40
21336;BMP180;69435;52.670;13.544;2023-08-08T01:10:07;100232.00;;;18.40
21336;BMP180;69435;52.670;13.544;2023-08-08T01:13:00;100222.00;;;18.40
21336;BMP180;69435;52.670;13.544;2023-08-08T01:15:49;100215.00;;;18.40
21336;BMP180;69435;52.670;13.544;2023-08-08T01:18:37;100226.00;;;18.30
21336;BMP180;69435;52.670;13.544;2023-08-08T01:21:28;100229.00;;;18.30
21336;BMP180;69435;52.670;13.544;2023-08-08T01:24:24;100228.00;;;18.40
21336;BMP180;69435;52.670;13.544;2023-08-08T01:27:15;100224.00;;;18.30
21336;BMP180;69435;52.670;13.544;2023-08-08T01:30:02;100226.00;;;18.30
21336;BMP180;69435;52.670;13.544;2023-08-08T01:32:49;100232.00;;;18.30
21336;BMP180;69435;52.670;13.544;2023-08-08T01:35:38;100230.00;;;18.40
21336;BMP180;69435;52.670;13.544;2023-08-08T01:38:34;100216.00;;;18.30
21336;BMP180;69435;52.670;13.544;2023-08-08T01:41:23;100206.00;;;18.20
21336;BMP180;69435;52.670;13.544;2023-08-08T01:44:11;100211.00;;;18.30
21336;BMP180;69435;52.670;13.544;2023-08-08T01:46:58;100203.00;;;18.40
21336;BMP180;69435;52.670;13.544;2023-08-08T01:49:44;100209.00;;;18.40
21336;BMP180;69435;52.670;13.544;2023-08-08T01:52:30;100207.00;;;18.40
21336;BMP180;69435;52.670;13.544;2023-08-08T01:55:16;100202.00;;;18.50
21336;BMP180;69435;52.670;13.544;2023-08-08T01:58:03;100180.00;;;18.50
21336;BMP180;69435;52.670;13.544;2023-08-08T02:00:49;100197.00;;;18.60
21336;BMP180;69435;52.670;13.544;2023-08-08T02:03:35;100201.00;;;18.50
21336;BMP180;69435;52.670;13.544;2023-08-08T02:06:21;100184.00;;;18.40
21336;BMP180;69435;52.670;13.544;2023-08-08T02:09:07;100184.00;;;18.50
21336;BMP180;69435;52.670;13.544;2023-08-08T02:11:54;100197.00;;;18.50
21336;BMP180;69435;52.670;13.544;2023-08-08T02:14:40;100180.00;;;18.40
21336;BMP180;69435;52.670;13.544;2023-08-08T02:17:27;100161.00;;;18.50
21336;BMP180;69435;52.670;13.544;2023-08-08T02:20:13;100191.00;;;18.50
21336;BMP180;69435;52.670;13.544;2023-08-08T02:22:59;100168.00;;;18.60
21336;BMP180;69435;52.670;13.544;2023-08-08T02:25:45;100160.00;;;18.50
21336;BMP180;69435;52.670;13.544;2023-08-08T02:28:31;100195.00;;;18.60
21336;BMP180;69435;52.670;13.544;2023-08-08T02:31:17;100184.00;;;18.50
21336;BMP180;69435;52.670;13.544;2023-08-08T02:34:06;100177.00;;;18.60
21336;BMP180;69435;52.670;13.544;2023-08-08T02:36:52;100180.00;;;18.60
21336;BMP180;69435;52.670;13.544;2023-08-08T02:39:38;100170.00;;;18.60
21336;BMP180;69435;52.670;13.544;2023-08-08T02:42:24;100175.00;;;18.60
21336;BMP180;69435;52.670;13.544;2023-08-08T02:45:10;100194.00;;;18.50
21336;BMP180;69435;52.670;13.544;2023-08-08T02:47:56;100176.00;;;18.50
21336;BMP180;69435;52.670;13.544;2023-08-08T02:50:42;100177.00;;;18.40
21336;BMP180;69435;52.670;13.544;2023-08-08T02:53:28;100178.00;;;18.40
21336;BMP180;69435;52.670;13.544;2023-08-08T02:56:14;100157.00;;;18.40
21336;BMP180;69435;52.670;13.544;2023-08-08T02:59:00;100191.00;;;18.40
21336;BMP180;69435;52.670;13.544;2023-08-08T03:01:46;100166.00;;;18.40
21336;BMP180;69435;52.670;13.544;2023-08-08T03:04:33;100172.00;;;18.30
21336;BMP180;69435;52.670;13.544;2023-08-08T03:07:19;100177.00;;;18.30
21336;BMP180;69435;52.670;13.544;2023-08-08T03:10:05;100195.00;;;18.20
21336;BMP180;69435;52.670;13.544;2023-08-08T03:12:52;100170.00;;;18.20
21336;BMP180;69435;52.670;13.544;2023-08-08T03:15:38;100185.00;;;18.20
21336;BMP180;69435;52.670;13.544;2023-08-08T03:18:24;100160.00;;;18.10
21336;BMP180;69435;52.670;13.544;2023-08-08T03:21:11;100176.00;;;18.00
21336;BMP180;69435;52.670;13.544;2023-08-08T03:23:57;100190.00;;;18.00
21336;BMP180;69435;52.670;13.544;2023-08-08T03:26:43;100184.00;;;17.90
21336;BMP180;69435;52.670;13.544;2023-08-08T03:29:29;100190.00;;;17.90
21336;BMP180;69435;52.670;13.544;2023-08-08T03:32:15;100184.00;;;17.90
21336;BMP180;69435;52.670;13.544;2023-08-08T03:35:03;100187.00;;;17.90
21336;BMP180;69435;52.670;13.544;2023-08-08T03:37:50;100176.00;;;17.90
21336;BMP180;69435;52.670;13.544;2023-08-08T03:40:36;100201.00;;;17.80
21336;BMP180;69435;52.670;13.544;2023-08-08T03:43:22;100200.00;;;17.90
21336;BMP180;69435;52.670;13.544;2023-08-08T03:46:08;100210.00;;;17.90
21336;BMP180;69435;52.670;13.544;2023-08-08T03:48:54;100204.00;;;17.90
21336;BMP180;69435;52.670;13.544;2023-08-08T03:51:40;100197.00;;;18.00
21336;BMP180;69435;52.670;13.544;2023-08-08T03:54:26;100188.00;;;17.90
21336;BMP180;69435;52.670;13.544;2023-08-08T03:57:13;100189.00;;;17.90
21336;BMP180;69435;52.670;13.544;2023-08-08T03:59:59;100202.00;;;18.00
21336;BMP180;69435;52.670;13.544;2023-08-08T04:02:45;100199.00;;;18.00
21336;BMP180;69435;52.670;13.544;2023-08-08T04:05:31;100199.00;;;18.10
21336;BMP180;69435;52.670;13.544;2023-08-08T04:08:17;100203.00;;;18.20
21336;BMP180;69435;52.670;13.544;2023-08-08T04:11:03;100191.00;;;18.20
21336;BMP180;69435;52.670;13.544;2023-08-08T04:13:49;100195.00;;;18.20
21336;BMP180;69435;52.670;13.544;2023-08-08T04:16:35;100183.00;;;18.30
21336;BMP180;69435;52.670;13.544;2023-08-08T04:19:21;100174.00;;;18.30
21336;BMP180;69435;52.670;13.544;2023-08-08T04:22:07;100194.00;;;18.40
21336;BMP180;69435;52.670;13.544;2023-08-08T04:24:53;100181.00;;;18.30
21336;BMP180;69435;52.670;13.544;2023-08-08T04:27:39;100199.00;;;18.30
21336;BMP180;69435;52.670;13.544;2023-08-08T04:30:25;100200.00;;;18.30
21336;BMP180;69435;52.670;13.544;2023-08-08T04:33:11;100187.00;;;18.30
21336;BMP180;69435;52.670;13.544;2023-08-08T04:35:58;100178.00;;;18.30
21336;BMP180;69435;52.670;13.544;2023-08-08T04:38:44;100199.00;;;18.30
21336;BMP180;69435;52.670;13.544;2023-08-08T04:41:31;100187.00;;;18.30
21336;BMP180;69435;52.670;13.544;2023-08-08T04:44:17;100185.00;;;18.40
21336;BMP180;69435;52.670;13.544;2023-08-08T04:47:03;100201.00;;;18.50
21336;BMP180;69435;52.670;13.544;2023-08-08T04:49:49;100194.00;;;18.60
21336;BMP180;69435;52.670;13.544;2023-08-08T04:52:35;100210.00;;;18.60
21336;BMP180;69435;52.670;13.544;2023-08-08T04:55:21;100205.00;;;18.60
21336;BMP180;69435;52.670;13.544;2023-08-08T04:58:07;100172.00;;;18.60
21336;BMP180;69435;52.670;13.544;2023-08-08T05:00:53;100189.00;;;18.70
21336;BMP180;69435;52.670;13.544;2023-08-08T05:03:40;100200.00;;;18.60
21336;BMP180;69435;52.670;13.544;2023-08-08T05:06:27;100200.00;;;18.70
21336;BMP180;69435;52.670;13.544;2023-08-08T05:09:13;100195.00;;;18.70
21336;BMP180;69435;52.670;13.544;2023-08-08T05:11:59;100200.00;;;18.80
21336;BMP180;69435;52.670;13.544;2023-08-08T05:14:45;100188.00;;;18.80
21336;BMP180;69435;52.670;13.544;2023-08-08T05:17:31;100200.00;;;18.80
21336;BMP180;69435;52.670;13.544;2023-08-08T05:20:18;100198.00;;;18.80
21336;BMP180;69435;52.670;13.544;2023-08-08T05:23:04;100154.00;;;18.90
21336;BMP180;69435;52.670;13.544;2023-08-08T05:25:50;100180.00;;;19.00
21336;BMP180;69435;52.670;13.544;2023-08-08T05:28:37;100193.00;;;19.00
21336;BMP180;69435;52.670;13.544;2023-08-08T05:31:23;100193.00;;;19.00
21336;BMP180;69435;52.670;13.544;2023-08-08T05:34:09;100168.00;;;18.90
21336;BMP180;69435;52.670;13.544;2023-08-08T05:36:55;100185.00;;;18.90
21336;BMP180;69435;52.670;13.544;2023-08-08T05:39:41;100182.00;;;19.00
21336;BMP180;69435;52.670;13.544;2023-08-08T05:42:27;100199.00;;;19.10
21336;BMP180;69435;52.670;13.544;2023-08-08T05:45:13;100184.00;;;19.20
21336;BMP180;69435;52.670;13.544;2023-08-08T05:47:59;100185.00;;;19.30
21336;BMP180;69435;52.670;13.544;2023-08-08T05:50:46;100190.00;;;19.40
21336;BMP180;69435;52.670;13.544;2023-08-08T05:53:32;100190.00;;;19.60
21336;BMP180;69435;52.670;13.544;2023-08-08T05:56:18;100193.00;;;19.70
21336;BMP180;69435;52.670;13.544;2023-08-08T05:59:04;100193.00;;;19.80
21336;BMP180;69435;52.670;13.544;2023-08-08T06:01:50;100177.00;;;20.00
21336;BMP180;69435;52.670;13.544;2023-08-08T06:04:37;100175.00;;;20.10
21336;BMP180;69435;52.670;13.544;2023-08-08T06:07:23;100187.00;;;20.10
21336;BMP180;69435;52.670;13.544;2023-08-08T06:10:10;100184.00;;;20.10
21336;BMP180;69435;52.670;13.544;2023-08-08T06:12:56;100209.00;;;20.20
21336;BMP180;69435;52.670;13.544;2023-08-08T06:15:42;100203.00;;;20.30
21336;BMP180;69435;52.670;13.544;2023-08-08T06:18:28;100202.00;;;20.40
21336;BMP180;69435;52.670;13.544;2023-08-08T06:21:14;100193.00;;;20.40
21336;BMP180;69435;52.670;13.544;2023-08-08T06:24:00;100198.00;;;20.50
21336;BMP180;69435;52.670;13.544;2023-08-08T06:26:46;100196.00;;;20.50
21336;BMP180;69435;52.670;13.544;2023-08-08T06:29:32;100202.00;;;20.60
21336;BMP180;69435;52.670;13.544;2023-08-08T06:32:17;100202.00;;;20.60
21336;BMP180;69435;52.670;13.544;2023-08-08T06:35:04;100198.00;;;20.70
21336;BMP180;69435;52.670;13.544;2023-08-08T06:37:50;100175.00;;;20.70
21336;BMP180;69435;52.670;13.544;2023-08-08T06:40:37;100183.00;;;20.80
21336;BMP180;69435;52.670;13.544;2023-08-08T06:43:23;100185.00;;;20.90
21336;BMP180;69435;52.670;13.544;2023-08-08T06:46:09;100190.00;;;21.10
21336;BMP180;69435;52.670;13.544;2023-08-08T06:48:55;100196.00;;;21.20
21336;BMP180;69435;52.670;13.544;2023-08-08T06:51:44;100189.00;;;21.30
21336;BMP180;69435;52.670;13.544;2023-08-08T06:54:30;100200.00;;;21.30
21336;BMP180;69435;52.670;13.544;2023-08-08T06:57:16;100182.00;;;21.30
21336;BMP180;69435;52.670;13.544;2023-08-08T07:00:03;100190.00;;;21.40
21336;BMP180;69435;52.670;13.544;2023-08-08T07:02:54;100191.00;;;21.40
21336;BMP180;69435;52.670;13.544;2023-08-08T07:05:40;100197.00;;;21.30
21336;BMP180;69435;52.670;13.544;2023-08-08T07:08:26;100196.00;;;21.30
21336;BMP180;69435;52.670;13.544;2023-08-08T07:11:12;100199.00;;;21.20
21336;BMP180;69435;52.670;13.544;2023-08-08T07:13:58;100210.00;;;21.20
21336;BMP180;69435;52.670;13.544;2023-08-08T07:16:44;100159.00;;;21.10
21336;BMP180;69435;52.670;13.544;2023-08-08T07:19:29;100203.00;;;21.10
21336;BMP180;69435;52.670;13.544;2023-08-08T07:22:15;100206.00;;;21.20
21336;BMP180;69435;52.670;13.544;2023-08-08T07:25:02;100209.00;;;21.30
21336;BMP180;69435;52.670;13.544;2023-08-08T07:27:48;100205.00;;;21.50
21336;BMP180;69435;52.670;13.544;2023-08-08T07:30:35;100211.00;;;21.70
21336;BMP180;69435;52.670;13.544;2023-08-08T07:33:21;100201.00;;;22.00
21336;BMP180;69435;52.670;13.544;2023-08-08T07:36:07;100195.00;;;22.40
21336;BMP180;69435;52.670;13.544;2023-08-08T07:38:53;100209.00;;;22.70
21336;BMP180;69435;52.670;13.544;2023-08-08T07:41:45;100201.00;;;23.00
21336;BMP180;69435;52.670;13.544;2023-08-08T07:44:31;100193.00;;;23.20
21336;BMP180;69435;52.670;13.544;2023-08-08T07:47:18;100200.00;;;23.30
21336;BMP180;69435;52.670;13.544;2023-08-08T07:50:05;100208.00;;;23.30
21336;BMP180;69435;52.670;13.544;2023-08-08T07:52:54;100201.00;;;23.20
21336;BMP180;69435;52.670;13.544;2023-08-08T07:55:40;100200.00;;;23.10
21336;BMP180;69435;52.670;13.544;2023-08-08T07:58:26;100216.00;;;23.10
21336;BMP180;69435;52.670;13.544;2023-08-08T08:01:12;100209.00;;;23.20
21336;BMP180;69435;52.670;13.544;2023-08-08T08:03:59;100195.00;;;23.60
21336;BMP180;69435;52.670;13.544;2023-08-08T08:06:45;100195.00;;;23.90
21336;BMP180;69435;52.670;13.544;2023-08-08T08:09:31;100198.00;;;24.20
21336;BMP180;69435;52.670;13.544;2023-08-08T08:12:17;100206.00;;;24.30
21336;BMP180;69435;52.670;13.544;2023-08-08T08:15:06;100208.00;;;24.30
21336;BMP180;69435;52.670;13.544;2023-08-08T08:17:52;100195.00;;;24.20
21336;BMP180;69435;52.670;13.544;2023-08-08T08:20:38;100202.00;;;24.10
21336;BMP180;69435;52.670;13.544;2023-08-08T08:23:25;100200.00;;;23.90
21336;BMP180;69435;52.670;13.544;2023-08-08T08:26:11;100198.00;;;23.80
21336;BMP180;69435;52.670;13.544;2023-08-08T08:28:58;100201.00;;;23.60
21336;BMP180;69435;52.670;13.544;2023-08-08T08:31:44;100200.00;;;23.40
21336;BMP180;69435;52.670;13.544;2023-08-08T08:34:30;100188.00;;;23.30
21336;BMP180;69435;52.670;13.544;2023-08-08T08:37:16;100182.00;;;23.10
21336;BMP180;69435;52.670;13.544;2023-08-08T08:40:02;100167.00;;;23.00
21336;BMP180;69435;52.670;13.544;2023-08-08T08:42:51;100194.00;;;23.00
21336;BMP180;69435;52.670;13.544;2023-08-08T08:45:38;100197.00;;;23.10
21336;BMP180;69435;52.670;13.544;2023-08-08T08:48:28;100196.00;;;23.10
21336;BMP180;69435;52.670;13.544;2023-08-08T08:51:14;100183.00;;;23.00
21336;BMP180;69435;52.670;13.544;2023-08-08T08:54:03;100193.00;;;23.10
21336;BMP180;69435;52.670;13.544;2023-08-08T08:56:49;100192.00;;;23.10
21336;BMP180;69435;52.670;13.544;2023-08-08T08:59:36;100195.00;;;23.10
21336;BMP180;69435;52.670;13.544;2023-08-08T09:02:23;100181.00;;;23.10
21336;BMP180;69435;52.670;13.544;2023-08-08T09:05:11;100180.00;;;23.30
21336;BMP180;69435;52.670;13.544;2023-08-08T09:07:58;100204.00;;;23.50
21336;BMP180;69435;52.670;13.544;2023-08-08T09:10:44;100190.00;;;23.70
21336;BMP180;69435;52.670;13.544;2023-08-08T09:13:37;100167.00;;;24.10
21336;BMP180;69435;52.670;13.544;2023-08-08T09:16:26;100187.00;;;24.60
21336;BMP180;69435;52.670;13.544;2023-08-08T09:19:14;100168.00;;;25.10
21336;BMP180;69435;52.670;13.544;2023-08-08T09:22:01;100176.00;;;25.60
21336;BMP180;69435;52.670;13.544;2023-08-08T09:24:47;100190.00;;;25.80
21336;BMP180;69435;52.670;13.544;2023-08-08T09:27:35;100179.00;;;25.60
21336;BMP180;69435;52.670;13.544;2023-08-08T09:30:22;100178.00;;;25.30
21336;BMP180;69435;52.670;13.544;2023-08-08T09:33:08;100167.00;;;24.90
21336;BMP180;69435;52.670;13.544;2023-08-08T09:35:54;100175.00;;;24.40
21336;BMP180;69435;52.670;13.544;2023-08-08T09:38:41;100179.00;;;24.10
21336;BMP180;69435;52.670;13.544;2023-08-08T09:41:27;100169.00;;;23.70
21336;BMP180;69435;52.670;13.544;2023-08-08T09:44:13;100180.00;;;23.70
21336;BMP180;69435;52.670;13.544;2023-08-08T09:46:59;100176.00;;;24.00
21336;BMP180;69435;52.670;13.544;2023-08-08T09:49:46;100176.00;;;24.40
21336;BMP180;69435;52.670;13.544;2023-08-08T09:52:36;100155.00;;;24.90
21336;BMP180;69435;52.670;13.544;2023-08-08T09:55:25;100177.00;;;25.10
21336;BMP180;69435;52.670;13.544;2023-08-08T09:58:12;100155.00;;;25.20
21336;BMP180;69435;52.670;13.544;2023-08-08T10:01:00;100159.00;;;25.30
21336;BMP180;69435;52.670;13.544;2023-08-08T10:03:48;100165.00;;;25.50
21336;BMP180;69435;52.670;13.544;2023-08-08T10:06:34;100159.00;;;26.00
21336;BMP180;69435;52.670;13.544;2023-08-08T10:09:20;100175.00;;;26.70
21336;BMP180;69435;52.670;13.544;2023-08-08T10:12:08;100145.00;;;27.70
21336;BMP180;69435;52.670;13.544;2023-08-08T10:14:55;100161.00;;;28.20
21336;BMP180;69435;52.670;13.544;2023-08-08T10:17:41;100149.00;;;28.50
21336;BMP180;69435;52.670;13.544;2023-08-08T10:20:32;100167.00;;;28.70
21336;BMP180;69435;52.670;13.544;2023-08-08T10:23:21;100170.00;;;28.80
21336;BMP180;69435;52.670;13.544;2023-08-08T10:26:18;100152.00;;;29.30
21336;BMP180;69435;52.670;13.544;2023-08-08T10:29:05;100147.00;;;29.50
21336;BMP180;69435;52.670;13.544;2023-08-08T10:32:24;100143.00;;;29.90
21336;BMP180;69435;52.670;13.544;2023-08-08T10:35:12;100150.00;;;30.10
21336;BMP180;69435;52.670;13.544;2023-08-08T10:37:58;100147.00;;;30.30
21336;BMP180;69435;52.670;13.544;2023-08-08T10:40:44;100136.00;;;30.10
21336;BMP180;69435;52.670;13.544;2023-08-08T10:43:31;100139.00;;;29.50
21336;BMP180;69435;52.670;13.544;2023-08-08T10:46:29;100130.00;;;28.90
21336;BMP180;69435;52.670;13.544;2023-08-08T10:49:17;100135.00;;;28.50
21336;BMP180;69435;52.670;13.544;2023-08-08T10:52:04;100131.00;;;28.10
21336;BMP180;69435;52.670;13.544;2023-08-08T10:54:53;100144.00;;;27.90
21336;BMP180;69435;52.670;13.544;2023-08-08T10:57:40;100144.00;;;27.40
21336;BMP180;69435;52.670;13.544;2023-08-08T11:00:32;100207.00;;;26.50
21336;BMP180;69435;52.670;13.544;2023-08-08T11:03:21;100156.00;;;25.20
21336;BMP180;69435;52.670;13.544;2023-08-08T11:06:08;100195.00;;;24.00
21336;BMP180;69435;52.670;13.544;2023-08-08T11:08:54;100192.00;;;23.20
21336;BMP180;69435;52.670;13.544;2023-08-08T11:11:43;100181.00;;;22.50
21336;BMP180;69435;52.670;13.544;2023-08-08T11:14:29;100183.00;;;22.10
21336;BMP180;69435;52.670;13.544;2023-08-08T11:17:15;100165.00;;;21.90
21336;BMP180;69435;52.670;13.544;2023-08-08T11:20:01;100180.00;;;22.00
21336;BMP180;69435;52.670;13.544;2023-08-08T11:22:53;100175.00;;;22.50
21336;BMP180;69435;52.670;13.544;2023-08-08T11:25:44;100173.00;;;23.20
21336;BMP180;69435;52.670;13.544;2023-08-08T11:28:30;100167.00;;;23.80
21336;BMP180;69435;52.670;13.544;2023-08-08T11:31:18;100152.00;;;24.40
21336;BMP180;69435;52.670;13.544;2023-08-08T11:34:05;100124.00;;;24.90
21336;BMP180;69435;52.670;13.544;2023-08-08T11:36:52;100146.00;;;25.40
21336;BMP180;69435;52.670;13.544;2023-08-08T11:39:38;100138.00;;;25.70
21336;BMP180;69435;52.670;13.544;2023-08-08T11:42:24;100141.00;;;25.70
21336;BMP180;69435;52.670;13.544;2023-08-08T11:45:13;100132.00;;;25.70
21336;BMP180;69435;52.670;13.544;2023-08-08T11:48:01;100143.00;;;25.70
21336;BMP180;69435;52.670;13.544;2023-08-08T11:50:47;100140.00;;;25.90
21336;BMP180;69435;52.670;13.544;2023-08-08T11:53:34;100142.00;;;26.00
21336;BMP180;69435;52.670;13.544;2023-08-08T11:56:21;100146.00;;;25.90
21336;BMP180;69435;52.670;13.544;2023-08-08T11:59:08;100144.00;;;25.70
21336;BMP180;69435;52.670;13.544;2023-08-08T12:01:56;100136.00;;;25.70
21336;BMP180;69435;52.670;13.544;2023-08-08T12:04:46;100134.00;;;25.90
21336;BMP180;69435;52.670;13.544;2023-08-08T12:07:33;100147.00;;;25.90
21336;BMP180;69435;52.670;13.544;2023-08-08T12:10:23;100141.00;;;26.10
21336;BMP180;69435;52.670;13.544;2023-08-08T12:13:09;100127.00;;;26.30
21336;BMP180;69435;52.670;13.544;2023-08-08T12:15:55;100136.00;;;26.50
21336;BMP180;69435;52.670;13.544;2023-08-08T12:18:44;100136.00;;;26.70
21336;BMP180;69435;52.670;13.544;2023-08-08T12:21:31;100131.00;;;26.90
21336;BMP180;69435;52.670;13.544;2023-08-08T12:24:19;100132.00;;;27.00
21336;BMP180;69435;52.670;13.544;2023-08-08T12:27:05;100135.00;;;27.00
21336;BMP180;69435;52.670;13.544;2023-08-08T12:29:51;100147.00;;;26.90
21336;BMP180;69435;52.670;13.544;2023-08-08T12:32:37;100127.00;;;26.80
21336;BMP180;69435;52.670;13.544;2023-08-08T12:35:23;100122.00;;;26.50
21336;BMP180;69435;52.670;13.544;2023-08-08T12:38:12;100145.00;;;26.20
21336;BMP180;69435;52.670;13.544;2023-08-08T12:41:01;100155.00;;;26.00
21336;BMP180;69435;52.670;13.544;2023-08-08T12:43:48;100138.00;;;25.80
21336;BMP180;69435;52.670;13.544;2023-08-08T12:46:35;100129.00;;;25.60
21336;BMP180;69435;52.670;13.544;2023-08-08T12:49:21;100145.00;;;25.50
21336;BMP180;69435;52.670;13.544;2023-08-08T12:52:07;100123.00;;;25.60
21336;BMP180;69435;52.670;13.544;2023-08-08T12:54:53;100119.00;;;25.80
21336;BMP180;69435;52.670;13.544;2023-08-08T12:57:39;100112.00;;;26.10
21336;BMP180;69435;52.670;13.544;2023-08-08T13:00:26;100106.00;;;26.40
21336;BMP180;69435;52.670;13.544;2023-08-08T13:03:13;100122.00;;;26.60
21336;BMP180;69435;52.670;13.544;2023-08-08T13:05:59;100136.00;;;26.70
21336;BMP180;69435;52.670;13.544;2023-08-08T13:08:45;100194.00;;;26.30
21336;BMP180;69435;52.670;13.544;2023-08-08T13:11:31;100230.00;;;25.30
21336;BMP180;69435;52.670;13.544;2023-08-08T13:14:17;100207.00;;;24.10
21336;BMP180;69435;52.670;13.544;2023-08-08T13:17:03;100215.00;;;23.20
21336;BMP180;69435;52.670;13.544;2023-08-08T13:19:49;100216.00;;;22.50
21336;BMP180;69435;52.670;13.544;2023-08-08T13:22:35;100216.00;;;22.10
21336;BMP180;69435;52.670;13.544;2023-08-08T13:25:21;100205.00;;;21.80
21336;BMP180;69435;52.670;13.544;2023-08-08T13:28:07;100202.00;;;21.70
21336;BMP180;69435;52.670;13.544;2023-08-08T13:30:53;100197.00;;;21.80
21336;BMP180;69435;52.670;13.544;2023-08-08T13:33:39;100200.00;;;21.90
21336;BMP180;69435;52.670;13.544;2023-08-08T13:36:25;100195.00;;;22.20
21336;BMP180;69435;52.670;13.544;2023-08-08T13:39:11;100185.00;;;22.50
21336;BMP180;69435;52.670;13.544;2023-08-08T13:41:57;100179.00;;;22.60
21336;BMP180;69435;52.670;13.544;2023-08-08T13:44:43;100200.00;;;22.70
21336;BMP180;69435;52.670;13.544;2023-08-08T13:47:29;100207.00;;;22.80
21336;BMP180;69435;52.670;13.544;2023-08-08T13:50:15;100199.00;;;22.80
21336;BMP180;69435;52.670;13.544;2023-08-08T13:53:02;100199.00;;;22.70
21336;BMP180;69435;52.670;13.544;2023-08-08T13:55:48;100210.00;;;22.60
21336;BMP180;69435;52.670;13.544;2023-08-08T13:58:34;100200.00;;;22.60
21336;BMP180;69435;52.670;13.544;2023-08-08T14:01:20;100193.00;;;22.50
21336;BMP180;69435;52.670;13.544;2023-08-08T14:04:06;100207.00;;;22.60
21336;BMP180;69435;52.670;13.544;2023-08-08T14:06:52;100203.00;;;22.60
21336;BMP180;69435;52.670;13.544;2023-08-08T14:09:38;100195.00;;;22.70
21336;BMP180;69435;52.670;13.544;2023-08-08T14:12:24;100191.00;;;22.90
21336;BMP180;69435;52.670;13.544;2023-08-08T14:15:10;100180.00;;;23.10
21336;BMP180;69435;52.670;13.544;2023-08-08T14:17:56;100164.00;;;23.30
21336;BMP180;69435;52.670;13.544;2023-08-08T14:20:42;100169.00;;;23.40
21336;BMP180;69435;52.670;13.544;2023-08-08T14:23:28;100182.00;;;23.50
21336;BMP180;69435;52.670;13.544;2023-08-08T14:26:14;100174.00;;;23.60
21336;BMP180;69435;52.670;13.544;2023-08-08T14:29:00;100178.00;;;23.80
21336;BMP180;69435;52.670;13.544;2023-08-08T14:31:46;100177.00;;;23.90
21336;BMP180;69435;52.670;13.544;2023-08-08T14:34:33;100191.00;;;23.90
21336;BMP180;69435;52.670;13.544;2023-08-08T14:37:20;100192.00;;;23.90
21336;BMP180;69435;52.670;13.544;2023-08-08T14:40:07;100180.00;;;23.90
21336;BMP180;69435;52.670;13.544;2023-08-08T14:42:54;100204.00;;;23.70
21336;BMP180;69435;52.670;13.544;2023-08-08T14:45:40;100212.00;;;23.60
21336;BMP180;69435;52.670;13.544;2023-08-08T14:48:26;100197.00;;;23.50
21336;BMP180;69435;52.670;13.544;2023-08-08T14:51:12;100224.00;;;23.40
21336;BMP180;69435;52.670;13.544;2023-08-08T14:54:03;100227.00;;;23.30
21336;BMP180;69435;52.670;13.544;2023-08-08T14:56:49;100244.00;;;23.10
21336;BMP180;69435;52.670;13.544;2023-08-08T14:59:36;100221.00;;;22.90
21336;BMP180;69435;52.670;13.544;2023-08-08T15:02:22;100233.00;;;22.70
21336;BMP180;69435;52.670;13.544;2023-08-08T15:05:08;100233.00;;;22.50
21336;BMP180;69435;52.670;13.544;2023-08-08T15:07:56;100239.00;;;22.30
21336;BMP180;69435;52.670;13.544;2023-08-08T15:10:42;100217.00;;;22.30
21336;BMP180;69435;52.670;13.544;2023-08-08T15:13:28;100203.00;;;22.40
21336;BMP180;69435;52.670;13.544;2023-08-08T15:16:14;100219.00;;;22.50
21336;BMP180;69435;52.670;13.544;2023-08-08T15:19:01;100219.00;;;22.50
21336;BMP180;69435;52.670;13.544;2023-08-08T15:21:47;100221.00;;;22.60
21336;BMP180;69435;52.670;13.544;2023-08-08T15:24:35;100213.00;;;22.50
21336;BMP180;69435;52.670;13.544;2023-08-08T15:27:22;100237.00;;;22.50
21336;BMP180;69435;52.670;13.544;2023-08-08T15:30:09;100261.00;;;22.40
21336;BMP180;69435;52.670;13.544;2023-08-08T15:32:55;100319.00;;;22.30
21336;BMP180;69435;52.670;13.544;2023-08-08T15:35:41;100317.00;;;22.00